Peck, KS (67120)

2:37 PM CDT on September 21, 2014 (GMT -0500)
City Building | Change Station
CLOSE
Current Station
Personal Weather Station
Location: Haysville, KS
Elevation: 1263 ft
Nearby Weather Stations

Elev 1263 ft 37.56 °N, 97.35 °W | Updated 1 minute ago

Clear
Clear
80.0 °F
Feels Like 78 °F
N
0.0
Wind Variable Wind from North
Gusts 0.0 mph

Today
High -- | Low -- °F
--% Chance of Precip.
Yesterday
High -- | Low -- °F
Precip. -- in
7:16 AM 7:27 PM
Waning Crescent, 5% visible
Pressure 30.19 in
Visibility 1.0 miles
Clouds Clear
Heat Index 78 °F
Dew Point Not available.
Humidity Not available.
Rainfall 0.00 in
Snow Depth Not available.
UV 7 out of 12
Pollen 5.60 out of 12
Air Quality Not available.
Flu Activity Not available.
SPECI KIAB 211933Z AUTO 01008G15KT 330V030 1SM R19/5500FT HZ CLR 28/06 A3019 RMK AO2 VIS 1V1 1/2

More Conditions Fewer Conditions

Pressure 30.19 in
Visibility 1.0 miles
Clouds Clear
Heat Index 78 °F
Dew Point Not available.
Humidity Not available.
Rainfall 0.00 in
Snow Depth Not available.
UV 7 out of 12
Pollen 5.60 out of 12
Air Quality Not available.
Flu Activity Not available.
SPECI KIAB 211933Z AUTO 01008G15KT 330V030 1SM R19/5500FT HZ CLR 28/06 A3019 RMK AO2 VIS 1V1 1/2

More Conditions Fewer Conditions

10-Day Weather Forecast

Almanac

Astronomy

Sep. 21, 2014 Rise Set
Actual Time 7:16 AM CDT 7:27 PM CDT
Civil Twilight 6:50 AM CDT 7:54 PM CDT
Nautical Twilight 6:19 AM CDT 8:24 PM CDT
Astronomical Twilight 5:48 AM CDT 8:55 PM CDT
Moon 4:53 AM CDT 6:03 PM CDT
Length of Visible Light 13h 03m
Length of Day
12h 11m
Tomorrow will be 2m 23s shorter.
Waning Crescent, 5% of the Moon is Illuminated
Today
Waning Crescent
Sep 24
New
Oct 1
First Quarter
Oct 8
Full
Oct 15
Last Quarter

Today's Extremes

State Highs State Lows

Community

WunderPhotos

Upload Photos

1,755,232 photos uploaded!

Nearby

Snow Depth

Station Depth Elevation
No new snow has been reported.

Earthquake Activity

City Distance Mag. Time & Date
Medford, Oklahoma 50 miles 3.2 2:10 AM CDT
2014-09-20
Luther, Oklahoma 127 miles 2.7 4:47 PM CDT
2014-09-19
Guthrie, Oklahoma 116 miles 3.6 12:23 PM CDT
2014-09-19
Jones, Oklahoma 133 miles 2.8 1:13 AM CDT
2014-09-19
Minimum magnitude displayed is 2.5.

Coastal Water Temperatures

Place Temperature
No Stations Reporting

Nearby Weather Stations